sensor_id;sensor_type;location;lat;lon;timestamp;P1;durP1;ratioP1;P2;durP2;ratioP2
21315;SDS011;10817;55.820;13.030;2023-01-08T00:00:09;11.70;;;7.50;;
21315;SDS011;10817;55.820;13.030;2023-01-08T00:02:40;9.02;;;6.88;;
21315;SDS011;10817;55.820;13.030;2023-01-08T00:05:08;7.97;;;6.80;;
21315;SDS011;10817;55.820;13.030;2023-01-08T00:07:36;8.35;;;5.93;;
21315;SDS011;10817;55.820;13.030;2023-01-08T00:10:04;8.20;;;6.53;;
21315;SDS011;10817;55.820;13.030;2023-01-08T00:12:32;9.95;;;7.18;;
21315;SDS011;10817;55.820;13.030;2023-01-08T00:14:59;7.63;;;6.60;;
21315;SDS011;10817;55.820;13.030;2023-01-08T00:17:26;9.23;;;7.15;;
21315;SDS011;10817;55.820;13.030;2023-01-08T00:19:55;9.63;;;6.78;;
21315;SDS011;10817;55.820;13.030;2023-01-08T00:22:22;8.85;;;6.95;;
21315;SDS011;10817;55.820;13.030;2023-01-08T00:24:49;8.80;;;6.97;;
21315;SDS011;10817;55.820;13.030;2023-01-08T00:27:17;8.90;;;6.72;;
21315;SDS011;10817;55.820;13.030;2023-01-08T00:29:44;9.52;;;7.13;;
21315;SDS011;10817;55.820;13.030;2023-01-08T00:32:11;10.48;;;6.43;;
21315;SDS011;10817;55.820;13.030;2023-01-08T00:34:38;7.47;;;6.22;;
21315;SDS011;10817;55.820;13.030;2023-01-08T00:37:09;9.50;;;5.80;;
21315;SDS011;10817;55.820;13.030;2023-01-08T00:39:37;11.80;;;6.75;;
21315;SDS011;10817;55.820;13.030;2023-01-08T00:42:04;8.43;;;6.10;;
21315;SDS011;10817;55.820;13.030;2023-01-08T00:44:31;7.07;;;5.60;;
21315;SDS011;10817;55.820;13.030;2023-01-08T00:46:58;7.13;;;5.40;;
21315;SDS011;10817;55.820;13.030;2023-01-08T00:49:25;8.10;;;6.00;;
21315;SDS011;10817;55.820;13.030;2023-01-08T00:51:53;8.18;;;5.60;;
21315;SDS011;10817;55.820;13.030;2023-01-08T00:54:21;8.65;;;6.10;;
21315;SDS011;10817;55.820;13.030;2023-01-08T00:56:48;11.32;;;5.35;;
21315;SDS011;10817;55.820;13.030;2023-01-08T00:59:15;5.85;;;4.95;;
21315;SDS011;10817;55.820;13.030;2023-01-08T01:01:42;10.13;;;5.15;;
21315;SDS011;10817;55.820;13.030;2023-01-08T01:04:10;5.70;;;4.90;;
21315;SDS011;10817;55.820;13.030;2023-01-08T01:06:39;7.72;;;5.20;;
21315;SDS011;10817;55.820;13.030;2023-01-08T01:09:06;6.28;;;5.22;;
21315;SDS011;10817;55.820;13.030;2023-01-08T01:11:34;7.28;;;5.00;;
21315;SDS011;10817;55.820;13.030;2023-01-08T01:14:02;7.60;;;4.90;;
21315;SDS011;10817;55.820;13.030;2023-01-08T01:16:29;8.95;;;5.32;;
21315;SDS011;10817;55.820;13.030;2023-01-08T01:18:56;6.22;;;4.60;;
21315;SDS011;10817;55.820;13.030;2023-01-08T01:21:24;6.60;;;5.45;;
21315;SDS011;10817;55.820;13.030;2023-01-08T01:23:52;8.85;;;5.60;;
21315;SDS011;10817;55.820;13.030;2023-01-08T01:26:20;7.13;;;6.03;;
21315;SDS011;10817;55.820;13.030;2023-01-08T01:28:49;8.50;;;6.30;;
21315;SDS011;10817;55.820;13.030;2023-01-08T01:31:17;8.65;;;6.45;;
21315;SDS011;10817;55.820;13.030;2023-01-08T01:33:45;8.98;;;6.00;;
21315;SDS011;10817;55.820;13.030;2023-01-08T01:36:12;11.27;;;6.68;;
21315;SDS011;10817;55.820;13.030;2023-01-08T01:38:41;8.02;;;6.05;;
21315;SDS011;10817;55.820;13.030;2023-01-08T01:41:10;8.85;;;5.97;;
21315;SDS011;10817;55.820;13.030;2023-01-08T01:43:44;9.18;;;5.93;;
21315;SDS011;10817;55.820;13.030;2023-01-08T01:48:55;8.63;;;5.95;;
21315;SDS011;10817;55.820;13.030;2023-01-08T01:51:26;9.50;;;6.20;;
21315;SDS011;10817;55.820;13.030;2023-01-08T01:53:55;8.05;;;6.05;;
21315;SDS011;10817;55.820;13.030;2023-01-08T01:56:22;10.05;;;5.75;;
21315;SDS011;10817;55.820;13.030;2023-01-08T01:58:51;9.35;;;6.50;;
21315;SDS011;10817;55.820;13.030;2023-01-08T02:01:18;8.25;;;5.88;;
21315;SDS011;10817;55.820;13.030;2023-01-08T02:03:45;10.48;;;6.82;;
21315;SDS011;10817;55.820;13.030;2023-01-08T02:06:17;9.20;;;7.22;;
21315;SDS011;10817;55.820;13.030;2023-01-08T02:08:49;12.13;;;6.90;;
21315;SDS011;10817;55.820;13.030;2023-01-08T02:11:19;8.95;;;6.97;;
21315;SDS011;10817;55.820;13.030;2023-01-08T02:13:50;12.30;;;7.32;;
21315;SDS011;10817;55.820;13.030;2023-01-08T02:16:21;11.02;;;7.65;;
21315;SDS011;10817;55.820;13.030;2023-01-08T02:18:54;16.35;;;8.00;;
21315;SDS011;10817;55.820;13.030;2023-01-08T02:21:29;16.52;;;8.45;;
21315;SDS011;10817;55.820;13.030;2023-01-08T02:24:02;14.90;;;8.27;;
21315;SDS011;10817;55.820;13.030;2023-01-08T02:26:34;13.10;;;8.43;;
21315;SDS011;10817;55.820;13.030;2023-01-08T02:29:05;15.77;;;8.40;;
21315;SDS011;10817;55.820;13.030;2023-01-08T02:31:33;16.85;;;8.57;;
21315;SDS011;10817;55.820;13.030;2023-01-08T02:34:01;13.57;;;8.57;;
21315;SDS011;10817;55.820;13.030;2023-01-08T02:36:29;16.70;;;9.27;;
21315;SDS011;10817;55.820;13.030;2023-01-08T02:39:01;19.05;;;9.40;;
21315;SDS011;10817;55.820;13.030;2023-01-08T02:41:31;14.70;;;8.20;;
21315;SDS011;10817;55.820;13.030;2023-01-08T02:44:02;18.42;;;9.10;;
21315;SDS011;10817;55.820;13.030;2023-01-08T02:46:31;19.15;;;9.63;;
21315;SDS011;10817;55.820;13.030;2023-01-08T02:49:02;15.38;;;8.88;;
21315;SDS011;10817;55.820;13.030;2023-01-08T02:51:32;18.38;;;9.18;;
21315;SDS011;10817;55.820;13.030;2023-01-08T02:54:01;19.17;;;9.30;;
21315;SDS011;10817;55.820;13.030;2023-01-08T02:56:29;15.80;;;8.77;;
21315;SDS011;10817;55.820;13.030;2023-01-08T02:58:57;14.60;;;8.90;;
21315;SDS011;10817;55.820;13.030;2023-01-08T03:01:27;19.67;;;9.27;;
21315;SDS011;10817;55.820;13.030;2023-01-08T03:03:55;19.05;;;9.18;;
21315;SDS011;10817;55.820;13.030;2023-01-08T03:06:22;17.48;;;9.10;;
21315;SDS011;10817;55.820;13.030;2023-01-08T03:08:51;14.80;;;8.73;;
21315;SDS011;10817;55.820;13.030;2023-01-08T03:11:19;18.73;;;8.65;;
21315;SDS011;10817;55.820;13.030;2023-01-08T03:13:47;19.23;;;9.30;;
21315;SDS011;10817;55.820;13.030;2023-01-08T03:16:17;18.77;;;9.02;;
21315;SDS011;10817;55.820;13.030;2023-01-08T03:18:51;20.63;;;9.07;;
21315;SDS011;10817;55.820;13.030;2023-01-08T03:21:18;17.27;;;9.10;;
21315;SDS011;10817;55.820;13.030;2023-01-08T03:23:47;17.42;;;9.05;;
21315;SDS011;10817;55.820;13.030;2023-01-08T03:26:16;16.88;;;9.10;;
21315;SDS011;10817;55.820;13.030;2023-01-08T03:28:45;21.42;;;8.75;;
21315;SDS011;10817;55.820;13.030;2023-01-08T03:31:13;16.10;;;8.80;;
21315;SDS011;10817;55.820;13.030;2023-01-08T03:33:40;15.35;;;8.48;;
21315;SDS011;10817;55.820;13.030;2023-01-08T03:36:12;15.02;;;8.48;;
21315;SDS011;10817;55.820;13.030;2023-01-08T03:38:41;17.98;;;8.82;;
21315;SDS011;10817;55.820;13.030;2023-01-08T03:41:10;17.52;;;8.55;;
21315;SDS011;10817;55.820;13.030;2023-01-08T03:43:39;15.95;;;8.73;;
21315;SDS011;10817;55.820;13.030;2023-01-08T03:46:10;13.45;;;8.48;;
21315;SDS011;10817;55.820;13.030;2023-01-08T03:48:38;13.77;;;8.02;;
21315;SDS011;10817;55.820;13.030;2023-01-08T03:51:07;13.40;;;7.60;;
21315;SDS011;10817;55.820;13.030;2023-01-08T03:53:35;13.05;;;7.82;;
21315;SDS011;10817;55.820;13.030;2023-01-08T03:56:03;12.88;;;7.88;;
21315;SDS011;10817;55.820;13.030;2023-01-08T03:58:31;17.00;;;8.77;;
21315;SDS011;10817;55.820;13.030;2023-01-08T04:00:59;11.95;;;8.02;;
21315;SDS011;10817;55.820;13.030;2023-01-08T04:03:26;13.88;;;8.00;;
21315;SDS011;10817;55.820;13.030;2023-01-08T04:05:53;12.57;;;8.00;;
21315;SDS011;10817;55.820;13.030;2023-01-08T04:08:20;13.25;;;8.32;;
21315;SDS011;10817;55.820;13.030;2023-01-08T04:10:49;16.20;;;8.45;;
21315;SDS011;10817;55.820;13.030;2023-01-08T04:13:17;9.52;;;7.15;;
21315;SDS011;10817;55.820;13.030;2023-01-08T04:15:46;13.82;;;8.13;;
21315;SDS011;10817;55.820;13.030;2023-01-08T04:18:13;12.63;;;8.00;;
21315;SDS011;10817;55.820;13.030;2023-01-08T04:20:43;11.45;;;7.97;;
21315;SDS011;10817;55.820;13.030;2023-01-08T04:23:11;11.27;;;7.32;;
21315;SDS011;10817;55.820;13.030;2023-01-08T04:25:38;10.60;;;7.80;;
21315;SDS011;10817;55.820;13.030;2023-01-08T04:28:08;11.30;;;7.70;;
21315;SDS011;10817;55.820;13.030;2023-01-08T04:30:35;10.20;;;6.95;;
21315;SDS011;10817;55.820;13.030;2023-01-08T04:33:02;11.93;;;8.05;;
21315;SDS011;10817;55.820;13.030;2023-01-08T04:35:30;11.98;;;6.90;;
21315;SDS011;10817;55.820;13.030;2023-01-08T04:37:57;13.52;;;7.38;;
21315;SDS011;10817;55.820;13.030;2023-01-08T04:40:24;11.18;;;7.80;;
21315;SDS011;10817;55.820;13.030;2023-01-08T04:42:52;8.95;;;6.95;;
21315;SDS011;10817;55.820;13.030;2023-01-08T04:45:20;11.80;;;7.60;;
21315;SDS011;10817;55.820;13.030;2023-01-08T04:47:54;13.27;;;7.50;;
21315;SDS011;10817;55.820;13.030;2023-01-08T04:50:21;11.20;;;6.65;;
21315;SDS011;10817;55.820;13.030;2023-01-08T04:52:48;11.70;;;7.22;;
21315;SDS011;10817;55.820;13.030;2023-01-08T04:55:15;10.55;;;6.93;;
21315;SDS011;10817;55.820;13.030;2023-01-08T04:57:42;9.85;;;7.30;;
21315;SDS011;10817;55.820;13.030;2023-01-08T05:00:10;9.30;;;6.55;;
21315;SDS011;10817;55.820;13.030;2023-01-08T05:02:39;13.35;;;7.88;;
21315;SDS011;10817;55.820;13.030;2023-01-08T05:05:06;13.00;;;7.38;;
21315;SDS011;10817;55.820;13.030;2023-01-08T05:07:33;9.35;;;7.38;;
21315;SDS011;10817;55.820;13.030;2023-01-08T05:10:00;10.13;;;7.75;;
21315;SDS011;10817;55.820;13.030;2023-01-08T05:12:28;9.40;;;7.47;;
21315;SDS011;10817;55.820;13.030;2023-01-08T05:14:55;9.10;;;7.20;;
21315;SDS011;10817;55.820;13.030;2023-01-08T05:17:22;10.20;;;7.57;;
21315;SDS011;10817;55.820;13.030;2023-01-08T05:19:50;13.13;;;8.23;;
21315;SDS011;10817;55.820;13.030;2023-01-08T05:22:18;13.38;;;7.90;;
21315;SDS011;10817;55.820;13.030;2023-01-08T05:24:45;10.93;;;7.68;;
21315;SDS011;10817;55.820;13.030;2023-01-08T05:27:12;11.60;;;8.27;;
21315;SDS011;10817;55.820;13.030;2023-01-08T05:29:39;10.75;;;8.13;;
21315;SDS011;10817;55.820;13.030;2023-01-08T05:32:07;12.15;;;8.23;;
21315;SDS011;10817;55.820;13.030;2023-01-08T05:34:39;12.35;;;8.05;;
21315;SDS011;10817;55.820;13.030;2023-01-08T05:37:08;11.18;;;7.28;;
21315;SDS011;10817;55.820;13.030;2023-01-08T05:39:35;12.25;;;7.57;;
21315;SDS011;10817;55.820;13.030;2023-01-08T05:42:02;11.15;;;7.63;;
21315;SDS011;10817;55.820;13.030;2023-01-08T05:44:30;12.20;;;7.25;;
21315;SDS011;10817;55.820;13.030;2023-01-08T05:46:57;8.70;;;6.68;;
21315;SDS011;10817;55.820;13.030;2023-01-08T05:49:24;9.75;;;7.13;;
21315;SDS011;10817;55.820;13.030;2023-01-08T05:51:51;11.88;;;7.20;;
21315;SDS011;10817;55.820;13.030;2023-01-08T05:54:20;10.07;;;7.15;;
21315;SDS011;10817;55.820;13.030;2023-01-08T05:56:47;9.20;;;7.28;;
21315;SDS011;10817;55.820;13.030;2023-01-08T05:59:14;13.80;;;7.22;;
21315;SDS011;10817;55.820;13.030;2023-01-08T06:01:41;9.48;;;7.20;;
21315;SDS011;10817;55.820;13.030;2023-01-08T06:04:08;10.13;;;7.00;;
21315;SDS011;10817;55.820;13.030;2023-01-08T06:06:36;9.73;;;6.75;;
21315;SDS011;10817;55.820;13.030;2023-01-08T06:09:03;12.60;;;6.95;;
21315;SDS011;10817;55.820;13.030;2023-01-08T06:11:31;11.75;;;6.95;;
21315;SDS011;10817;55.820;13.030;2023-01-08T06:13:58;11.02;;;6.57;;
21315;SDS011;10817;55.820;13.030;2023-01-08T06:16:26;12.45;;;7.53;;
21315;SDS011;10817;55.820;13.030;2023-01-08T06:18:53;9.50;;;6.95;;
21315;SDS011;10817;55.820;13.030;2023-01-08T06:21:20;11.10;;;7.07;;
21315;SDS011;10817;55.820;13.030;2023-01-08T06:23:47;9.35;;;6.05;;
21315;SDS011;10817;55.820;13.030;2023-01-08T06:26:14;11.80;;;7.50;;
21315;SDS011;10817;55.820;13.030;2023-01-08T06:28:43;11.38;;;7.22;;
21315;SDS011;10817;55.820;13.030;2023-01-08T06:31:10;15.18;;;7.70;;
21315;SDS011;10817;55.820;13.030;2023-01-08T06:33:37;11.20;;;7.53;;
21315;SDS011;10817;55.820;13.030;2023-01-08T06:36:05;11.23;;;7.60;;
21315;SDS011;10817;55.820;13.030;2023-01-08T06:38:32;10.90;;;7.75;;
21315;SDS011;10817;55.820;13.030;2023-01-08T06:41:02;12.27;;;8.13;;
21315;SDS011;10817;55.820;13.030;2023-01-08T06:43:29;11.00;;;8.18;;
21315;SDS011;10817;55.820;13.030;2023-01-08T06:45:57;13.27;;;9.35;;
21315;SDS011;10817;55.820;13.030;2023-01-08T06:48:25;19.45;;;9.73;;
21315;SDS011;10817;55.820;13.030;2023-01-08T06:50:52;13.52;;;9.68;;
21315;SDS011;10817;55.820;13.030;2023-01-08T06:53:20;16.30;;;9.05;;
21315;SDS011;10817;55.820;13.030;2023-01-08T06:55:47;14.25;;;9.35;;
21315;SDS011;10817;55.820;13.030;2023-01-08T06:58:20;12.90;;;10.23;;
21315;SDS011;10817;55.820;13.030;2023-01-08T07:00:47;15.30;;;9.57;;
21315;SDS011;10817;55.820;13.030;2023-01-08T07:03:16;15.38;;;9.93;;
21315;SDS011;10817;55.820;13.030;2023-01-08T07:05:43;15.38;;;11.02;;
21315;SDS011;10817;55.820;13.030;2023-01-08T07:08:10;15.05;;;10.18;;
21315;SDS011;10817;55.820;13.030;2023-01-08T07:10:38;15.23;;;10.90;;
21315;SDS011;10817;55.820;13.030;2023-01-08T07:13:06;13.70;;;9.88;;
21315;SDS011;10817;55.820;13.030;2023-01-08T07:15:34;17.35;;;10.07;;
21315;SDS011;10817;55.820;13.030;2023-01-08T07:18:02;15.40;;;9.68;;
21315;SDS011;10817;55.820;13.030;2023-01-08T07:20:32;13.27;;;10.30;;
21315;SDS011;10817;55.820;13.030;2023-01-08T07:23:00;13.73;;;10.27;;
21315;SDS011;10817;55.820;13.030;2023-01-08T07:25:27;13.90;;;10.18;;
21315;SDS011;10817;55.820;13.030;2023-01-08T07:27:55;16.63;;;9.60;;
21315;SDS011;10817;55.820;13.030;2023-01-08T07:30:22;14.30;;;10.32;;
21315;SDS011;10817;55.820;13.030;2023-01-08T07:32:50;15.20;;;10.43;;
21315;SDS011;10817;55.820;13.030;2023-01-08T07:35:17;17.10;;;10.88;;
21315;SDS011;10817;55.820;13.030;2023-01-08T07:37:45;17.83;;;10.20;;
21315;SDS011;10817;55.820;13.030;2023-01-08T07:40:13;14.07;;;10.15;;
21315;SDS011;10817;55.820;13.030;2023-01-08T07:42:40;16.90;;;10.50;;
21315;SDS011;10817;55.820;13.030;2023-01-08T07:45:07;16.23;;;11.23;;
21315;SDS011;10817;55.820;13.030;2023-01-08T07:47:34;20.25;;;11.90;;
21315;SDS011;10817;55.820;13.030;2023-01-08T07:50:02;16.77;;;11.90;;
21315;SDS011;10817;55.820;13.030;2023-01-08T07:52:29;19.20;;;12.07;;
21315;SDS011;10817;55.820;13.030;2023-01-08T07:54:58;19.35;;;12.55;;
21315;SDS011;10817;55.820;13.030;2023-01-08T07:57:25;17.75;;;12.10;;
21315;SDS011;10817;55.820;13.030;2023-01-08T07:59:54;22.67;;;12.98;;
21315;SDS011;10817;55.820;13.030;2023-01-08T08:02:21;15.75;;;11.90;;
21315;SDS011;10817;55.820;13.030;2023-01-08T08:04:49;16.30;;;12.20;;
21315;SDS011;10817;55.820;13.030;2023-01-08T08:07:16;19.17;;;12.32;;
21315;SDS011;10817;55.820;13.030;2023-01-08T08:09:43;16.25;;;11.63;;
21315;SDS011;10817;55.820;13.030;2023-01-08T08:12:11;17.30;;;11.82;;
21315;SDS011;10817;55.820;13.030;2023-01-08T08:14:39;15.45;;;11.45;;
21315;SDS011;10817;55.820;13.030;2023-01-08T08:17:06;17.58;;;11.57;;
21315;SDS011;10817;55.820;13.030;2023-01-08T08:19:33;17.85;;;11.73;;
21315;SDS011;10817;55.820;13.030;2023-01-08T08:22:00;18.02;;;12.05;;
21315;SDS011;10817;55.820;13.030;2023-01-08T08:24:28;18.77;;;12.02;;
21315;SDS011;10817;55.820;13.030;2023-01-08T08:26:55;18.00;;;12.68;;
21315;SDS011;10817;55.820;13.030;2023-01-08T08:29:23;18.23;;;11.95;;
21315;SDS011;10817;55.820;13.030;2023-01-08T08:31:50;17.25;;;12.23;;
21315;SDS011;10817;55.820;13.030;2023-01-08T08:34:18;18.38;;;12.25;;
21315;SDS011;10817;55.820;13.030;2023-01-08T08:36:46;16.48;;;11.32;;
21315;SDS011;10817;55.820;13.030;2023-01-08T08:39:13;20.42;;;12.32;;
21315;SDS011;10817;55.820;13.030;2023-01-08T08:41:41;19.13;;;12.23;;
21315;SDS011;10817;55.820;13.030;2023-01-08T08:44:08;18.90;;;11.43;;
21315;SDS011;10817;55.820;13.030;2023-01-08T08:46:37;14.80;;;10.85;;
21315;SDS011;10817;55.820;13.030;2023-01-08T08:49:04;17.52;;;11.68;;
21315;SDS011;10817;55.820;13.030;2023-01-08T08:51:31;15.57;;;10.32;;
21315;SDS011;10817;55.820;13.030;2023-01-08T08:53:59;19.48;;;11.95;;
21315;SDS011;10817;55.820;13.030;2023-01-08T08:56:26;15.30;;;11.00;;
21315;SDS011;10817;55.820;13.030;2023-01-08T08:58:54;15.05;;;11.55;;
21315;SDS011;10817;55.820;13.030;2023-01-08T09:01:22;14.10;;;11.05;;
21315;SDS011;10817;55.820;13.030;2023-01-08T09:03:51;17.23;;;11.68;;
21315;SDS011;10817;55.820;13.030;2023-01-08T09:06:18;14.57;;;11.15;;
21315;SDS011;10817;55.820;13.030;2023-01-08T09:08:45;13.73;;;10.07;;
21315;SDS011;10817;55.820;13.030;2023-01-08T09:11:12;15.50;;;10.55;;
21315;SDS011;10817;55.820;13.030;2023-01-08T09:13:39;13.95;;;10.02;;
21315;SDS011;10817;55.820;13.030;2023-01-08T09:16:06;15.18;;;10.25;;
21315;SDS011;10817;55.820;13.030;2023-01-08T09:18:34;15.10;;;10.18;;
21315;SDS011;10817;55.820;13.030;2023-01-08T09:21:06;14.30;;;9.57;;
21315;SDS011;10817;55.820;13.030;2023-01-08T09:23:33;13.35;;;9.43;;
21315;SDS011;10817;55.820;13.030;2023-01-08T09:26:01;13.85;;;9.38;;
21315;SDS011;10817;55.820;13.030;2023-01-08T09:28:28;12.90;;;9.98;;
21315;SDS011;10817;55.820;13.030;2023-01-08T09:30:57;13.50;;;9.10;;
21315;SDS011;10817;55.820;13.030;2023-01-08T09:33:26;12.82;;;9.32;;
21315;SDS011;10817;55.820;13.030;2023-01-08T09:35:53;12.43;;;8.75;;
21315;SDS011;10817;55.820;13.030;2023-01-08T09:38:22;13.32;;;9.13;;
21315;SDS011;10817;55.820;13.030;2023-01-08T09:40:50;14.07;;;9.63;;
21315;SDS011;10817;55.820;13.030;2023-01-08T09:43:20;11.63;;;9.18;;
21315;SDS011;10817;55.820;13.030;2023-01-08T09:45:49;14.45;;;8.93;;
21315;SDS011;10817;55.820;13.030;2023-01-08T09:48:17;11.73;;;9.05;;
21315;SDS011;10817;55.820;13.030;2023-01-08T09:50:47;11.23;;;8.35;;
21315;SDS011;10817;55.820;13.030;2023-01-08T09:53:15;14.73;;;8.57;;
21315;SDS011;10817;55.820;13.030;2023-01-08T09:55:45;14.35;;;8.50;;
21315;SDS011;10817;55.820;13.030;2023-01-08T09:58:18;12.07;;;8.52;;
21315;SDS011;10817;55.820;13.030;2023-01-08T10:00:48;14.48;;;9.77;;
21315;SDS011;10817;55.820;13.030;2023-01-08T10:03:16;15.38;;;9.55;;
21315;SDS011;10817;55.820;13.030;2023-01-08T10:05:43;14.63;;;9.38;;
21315;SDS011;10817;55.820;13.030;2023-01-08T10:08:11;13.77;;;9.25;;
21315;SDS011;10817;55.820;13.030;2023-01-08T10:10:39;15.52;;;9.68;;
21315;SDS011;10817;55.820;13.030;2023-01-08T10:13:10;13.93;;;9.98;;
21315;SDS011;10817;55.820;13.030;2023-01-08T10:15:38;12.95;;;9.45;;
21315;SDS011;10817;55.820;13.030;2023-01-08T10:18:06;17.88;;;10.70;;
21315;SDS011;10817;55.820;13.030;2023-01-08T10:20:37;13.07;;;9.60;;
21315;SDS011;10817;55.820;13.030;2023-01-08T10:23:08;14.25;;;9.63;;
21315;SDS011;10817;55.820;13.030;2023-01-08T10:25:46;11.90;;;9.10;;
21315;SDS011;10817;55.820;13.030;2023-01-08T10:28:17;13.95;;;9.10;;
21315;SDS011;10817;55.820;13.030;2023-01-08T10:30:44;14.95;;;9.32;;
21315;SDS011;10817;55.820;13.030;2023-01-08T10:33:14;14.90;;;10.18;;
21315;SDS011;10817;55.820;13.030;2023-01-08T10:35:49;14.18;;;9.95;;
21315;SDS011;10817;55.820;13.030;2023-01-08T10:38:23;17.77;;;11.43;;
21315;SDS011;10817;55.820;13.030;2023-01-08T10:40:51;20.23;;;11.60;;
21315;SDS011;10817;55.820;13.030;2023-01-08T10:43:21;18.98;;;11.85;;
21315;SDS011;10817;55.820;13.030;2023-01-08T10:45:55;18.55;;;12.63;;
21315;SDS011;10817;55.820;13.030;2023-01-08T10:48:24;17.02;;;12.05;;
21315;SDS011;10817;55.820;13.030;2023-01-08T10:51:02;17.73;;;11.30;;
21315;SDS011;10817;55.820;13.030;2023-01-08T10:53:29;16.63;;;11.50;;
21315;SDS011;10817;55.820;13.030;2023-01-08T10:55:57;16.00;;;11.95;;
21315;SDS011;10817;55.820;13.030;2023-01-08T10:58:27;23.55;;;15.00;;
21315;SDS011;10817;55.820;13.030;2023-01-08T11:00:54;19.30;;;13.25;;
21315;SDS011;10817;55.820;13.030;2023-01-08T11:03:24;17.75;;;11.35;;
21315;SDS011;10817;55.820;13.030;2023-01-08T11:05:53;17.30;;;11.82;;
21315;SDS011;10817;55.820;13.030;2023-01-08T11:08:21;20.67;;;12.07;;
21315;SDS011;10817;55.820;13.030;2023-01-08T11:10:52;18.52;;;11.90;;
21315;SDS011;10817;55.820;13.030;2023-01-08T11:13:20;19.23;;;12.85;;
21315;SDS011;10817;55.820;13.030;2023-01-08T11:15:57;16.92;;;12.07;;
21315;SDS011;10817;55.820;13.030;2023-01-08T11:18:25;19.92;;;11.50;;
21315;SDS011;10817;55.820;13.030;2023-01-08T11:21:04;20.48;;;12.95;;
21315;SDS011;10817;55.820;13.030;2023-01-08T11:23:32;19.05;;;11.82;;
21315;SDS011;10817;55.820;13.030;2023-01-08T11:26:00;21.42;;;12.73;;
21315;SDS011;10817;55.820;13.030;2023-01-08T11:28:32;25.13;;;12.63;;
21315;SDS011;10817;55.820;13.030;2023-01-08T11:31:11;19.33;;;11.30;;
21315;SDS011;10817;55.820;13.030;2023-01-08T11:33:40;22.60;;;12.15;;
21315;SDS011;10817;55.820;13.030;2023-01-08T11:36:10;19.45;;;11.57;;
21315;SDS011;10817;55.820;13.030;2023-01-08T11:38:39;20.75;;;13.20;;
21315;SDS011;10817;55.820;13.030;2023-01-08T11:41:18;23.50;;;13.18;;
21315;SDS011;10817;55.820;13.030;2023-01-08T11:43:51;20.65;;;13.23;;
21315;SDS011;10817;55.820;13.030;2023-01-08T11:46:25;21.02;;;12.82;;
21315;SDS011;10817;55.820;13.030;2023-01-08T11:49:01;19.20;;;12.57;;
21315;SDS011;10817;55.820;13.030;2023-01-08T11:51:36;19.52;;;11.85;;
21315;SDS011;10817;55.820;13.030;2023-01-08T11:54:07;21.63;;;12.50;;
21315;SDS011;10817;55.820;13.030;2023-01-08T11:56:49;21.08;;;12.98;;
21315;SDS011;10817;55.820;13.030;2023-01-08T11:59:20;17.45;;;12.32;;
21315;SDS011;10817;55.820;13.030;2023-01-08T12:01:55;19.88;;;12.63;;
21315;SDS011;10817;55.820;13.030;2023-01-08T12:04:33;26.27;;;12.65;;
21315;SDS011;10817;55.820;13.030;2023-01-08T12:07:04;26.15;;;13.90;;
21315;SDS011;10817;55.820;13.030;2023-01-08T12:09:38;24.13;;;13.90;;
21315;SDS011;10817;55.820;13.030;2023-01-08T12:12:08;20.48;;;13.25;;
21315;SDS011;10817;55.820;13.030;2023-01-08T12:14:40;24.98;;;13.18;;
21315;SDS011;10817;55.820;13.030;2023-01-08T12:17:18;21.80;;;13.88;;
21315;SDS011;10817;55.820;13.030;2023-01-08T12:20:01;28.23;;;15.10;;
21315;SDS011;10817;55.820;13.030;2023-01-08T12:22:35;26.15;;;15.07;;
21315;SDS011;10817;55.820;13.030;2023-01-08T12:25:20;25.77;;;15.45;;
21315;SDS011;10817;55.820;13.030;2023-01-08T12:27:51;25.98;;;15.77;;
21315;SDS011;10817;55.820;13.030;2023-01-08T12:30:23;30.40;;;16.23;;
21315;SDS011;10817;55.820;13.030;2023-01-08T12:32:54;31.92;;;16.48;;
21315;SDS011;10817;55.820;13.030;2023-01-08T12:35:23;33.95;;;16.67;;
21315;SDS011;10817;55.820;13.030;2023-01-08T12:37:53;26.52;;;16.67;;
21315;SDS011;10817;55.820;13.030;2023-01-08T12:40:23;25.35;;;16.58;;
21315;SDS011;10817;55.820;13.030;2023-01-08T12:42:51;27.13;;;16.80;;
21315;SDS011;10817;55.820;13.030;2023-01-08T12:45:20;30.50;;;16.85;;
21315;SDS011;10817;55.820;13.030;2023-01-08T12:47:49;27.95;;;16.38;;
21315;SDS011;10817;55.820;13.030;2023-01-08T12:50:23;30.63;;;17.00;;
21315;SDS011;10817;55.820;13.030;2023-01-08T12:52:53;29.35;;;15.93;;
21315;SDS011;10817;55.820;13.030;2023-01-08T12:55:25;30.92;;;16.85;;
21315;SDS011;10817;55.820;13.030;2023-01-08T12:57:56;31.02;;;15.95;;
21315;SDS011;10817;55.820;13.030;2023-01-08T13:00:26;29.75;;;16.98;;
21315;SDS011;10817;55.820;13.030;2023-01-08T13:02:57;35.65;;;17.17;;
21315;SDS011;10817;55.820;13.030;2023-01-08T13:05:31;32.70;;;17.63;;
21315;SDS011;10817;55.820;13.030;2023-01-08T13:07:59;32.35;;;17.27;;
21315;SDS011;10817;55.820;13.030;2023-01-08T13:10:31;29.15;;;16.73;;
21315;SDS011;10817;55.820;13.030;2023-01-08T13:13:00;36.35;;;17.52;;
21315;SDS011;10817;55.820;13.030;2023-01-08T13:15:28;29.60;;;18.20;;
21315;SDS011;10817;55.820;13.030;2023-01-08T13:17:56;33.47;;;18.45;;
21315;SDS011;10817;55.820;13.030;2023-01-08T13:20:25;34.20;;;18.33;;
21315;SDS011;10817;55.820;13.030;2023-01-08T13:22:54;32.83;;;18.58;;
21315;SDS011;10817;55.820;13.030;2023-01-08T13:25:26;30.10;;;18.08;;
21315;SDS011;10817;55.820;13.030;2023-01-08T13:27:54;53.30;;;19.60;;
21315;SDS011;10817;55.820;13.030;2023-01-08T13:30:37;32.33;;;17.88;;
21315;SDS011;10817;55.820;13.030;2023-01-08T13:33:22;32.22;;;18.65;;
21315;SDS011;10817;55.820;13.030;2023-01-08T13:35:50;31.95;;;18.30;;
21315;SDS011;10817;55.820;13.030;2023-01-08T13:38:19;35.10;;;19.27;;
21315;SDS011;10817;55.820;13.030;2023-01-08T13:40:53;33.58;;;20.10;;
21315;SDS011;10817;55.820;13.030;2023-01-08T13:43:21;38.78;;;19.52;;
21315;SDS011;10817;55.820;13.030;2023-01-08T13:45:53;35.88;;;18.67;;
21315;SDS011;10817;55.820;13.030;2023-01-08T13:48:21;39.88;;;19.60;;
21315;SDS011;10817;55.820;13.030;2023-01-08T13:50:49;32.70;;;19.83;;
21315;SDS011;10817;55.820;13.030;2023-01-08T13:53:16;32.45;;;19.73;;
21315;SDS011;10817;55.820;13.030;2023-01-08T13:55:48;35.70;;;18.92;;
21315;SDS011;10817;55.820;13.030;2023-01-08T13:58:22;33.03;;;19.05;;
21315;SDS011;10817;55.820;13.030;2023-01-08T14:00:51;39.88;;;19.92;;
21315;SDS011;10817;55.820;13.030;2023-01-08T14:03:22;36.05;;;18.95;;
21315;SDS011;10817;55.820;13.030;2023-01-08T14:05:49;36.50;;;21.55;;
21315;SDS011;10817;55.820;13.030;2023-01-08T14:08:20;36.95;;;18.73;;
21315;SDS011;10817;55.820;13.030;2023-01-08T14:10:49;36.22;;;19.45;;
21315;SDS011;10817;55.820;13.030;2023-01-08T14:13:25;40.15;;;19.98;;
21315;SDS011;10817;55.820;13.030;2023-01-08T14:15:56;36.67;;;20.63;;
21315;SDS011;10817;55.820;13.030;2023-01-08T14:18:24;38.63;;;19.10;;
21315;SDS011;10817;55.820;13.030;2023-01-08T14:20:53;35.08;;;18.95;;
21315;SDS011;10817;55.820;13.030;2023-01-08T14:23:22;35.97;;;19.55;;
21315;SDS011;10817;55.820;13.030;2023-01-08T14:25:51;34.10;;;19.83;;
21315;SDS011;10817;55.820;13.030;2023-01-08T14:28:19;33.55;;;20.40;;
21315;SDS011;10817;55.820;13.030;2023-01-08T14:30:48;36.67;;;19.25;;